createdAt,value
2023-02-07T00:02:13.074Z,99.90
2023-02-07T00:03:47.143Z,99.90
2023-02-07T00:05:20.177Z,99.90
2023-02-07T00:06:55.084Z,99.90
2023-02-07T00:08:28.139Z,99.90
2023-02-07T00:10:01.151Z,99.90
2023-02-07T00:11:34.608Z,99.90
2023-02-07T00:13:06.537Z,99.90
2023-02-07T00:14:39.494Z,99.90
2023-02-07T00:16:13.242Z,99.90
2023-02-07T00:17:46.243Z,99.90
2023-02-07T00:20:58.386Z,99.90
2023-02-07T00:22:33.090Z,99.90
2023-02-07T00:24:06.656Z,99.90
2023-02-07T00:25:39.810Z,99.90
2023-02-07T00:27:12.960Z,99.90
2023-02-07T00:28:46.001Z,99.90
2023-02-07T00:30:19.066Z,99.90
2023-02-07T00:31:52.267Z,99.90
2023-02-07T00:33:25.338Z,99.90
2023-02-07T00:34:58.344Z,99.90
2023-02-07T00:36:32.978Z,99.90
2023-02-07T00:38:07.437Z,99.90
2023-02-07T00:39:40.539Z,99.90
2023-02-07T00:41:15.231Z,99.90
2023-02-07T00:42:48.312Z,99.90
2023-02-07T00:44:20.444Z,99.90
2023-02-07T00:45:53.591Z,99.90
2023-02-07T00:47:26.616Z,99.90
2023-02-07T00:48:59.842Z,99.90
2023-02-07T00:50:31.848Z,99.90
2023-02-07T00:52:05.013Z,99.90
2023-02-07T00:53:39.827Z,99.90
2023-02-07T00:55:12.882Z,99.90
2023-02-07T00:58:19.269Z,99.90
2023-02-07T00:59:52.219Z,99.90
2023-02-07T01:01:24.592Z,99.90
2023-02-07T01:02:57.619Z,99.90
2023-02-07T01:04:30.623Z,99.90
2023-02-07T01:06:02.544Z,99.90
2023-02-07T01:07:35.839Z,99.90
2023-02-07T01:09:11.147Z,99.90
2023-02-07T01:10:45.984Z,99.90
2023-02-07T01:13:52.222Z,99.90
2023-02-07T01:16:58.391Z,99.90
2023-02-07T01:18:30.570Z,99.90
2023-02-07T01:20:03.561Z,99.90
2023-02-07T01:23:09.804Z,99.90
2023-02-07T01:24:44.201Z,99.90
2023-02-07T01:26:16.626Z,99.90
2023-02-07T01:27:49.629Z,99.90
2023-02-07T01:29:22.619Z,99.90
2023-02-07T01:30:54.698Z,99.90
2023-02-07T01:32:27.871Z,99.90
2023-02-07T01:34:03.607Z,99.90
2023-02-07T01:35:39.555Z,99.90
2023-02-07T01:37:12.728Z,99.90
2023-02-07T01:38:44.704Z,99.90
2023-02-07T01:40:19.504Z,99.90
2023-02-07T01:41:51.410Z,99.90
2023-02-07T01:43:26.510Z,99.90
2023-02-07T01:45:10.947Z,99.90
2023-02-07T01:48:20.909Z,99.90
2023-02-07T01:49:56.534Z,99.90
2023-02-07T01:51:31.876Z,99.90
2023-02-07T01:53:07.646Z,99.90
2023-02-07T01:54:42.466Z,99.90
2023-02-07T01:56:31.008Z,99.90
2023-02-07T01:58:06.921Z,99.90
2023-02-07T01:59:43.965Z,99.90
2023-02-07T02:01:21.764Z,99.90
2023-02-07T02:04:27.189Z,99.90
2023-02-07T02:06:00.448Z,99.90
2023-02-07T02:07:34.983Z,99.90
2023-02-07T02:09:10.942Z,99.90
2023-02-07T02:10:57.427Z,99.90
2023-02-07T02:12:45.561Z,99.90
2023-02-07T02:14:32.127Z,99.90
2023-02-07T02:16:13.489Z,99.90
2023-02-07T02:18:01.852Z,99.90
2023-02-07T02:19:59.765Z,99.90
2023-02-07T02:21:59.484Z,99.90
2023-02-07T02:23:43.178Z,99.90
2023-02-07T02:25:49.787Z,99.90
2023-02-07T02:27:41.132Z,99.90
2023-02-07T02:29:45.489Z,99.90
2023-02-07T02:32:07.579Z,99.90
2023-02-07T02:33:49.283Z,99.90
2023-02-07T02:35:28.384Z,99.90
2023-02-07T02:37:07.932Z,99.90
2023-02-07T02:38:47.109Z,99.90
2023-02-07T02:40:23.137Z,99.90
2023-02-07T02:42:04.477Z,99.90
2023-02-07T02:43:43.480Z,99.90
2023-02-07T02:45:19.016Z,99.90
2023-02-07T02:46:55.230Z,99.90
2023-02-07T02:48:29.776Z,99.90
2023-02-07T02:50:04.659Z,99.90
2023-02-07T02:51:36.689Z,99.90
2023-02-07T02:53:11.161Z,99.90
2023-02-07T02:54:44.054Z,99.90
2023-02-07T02:56:40.718Z,99.90
2023-02-07T02:58:24.931Z,99.90
2023-02-07T03:00:36.410Z,99.90
2023-02-07T03:02:20.280Z,99.90
2023-02-07T03:03:59.400Z,99.90
2023-02-07T03:05:45.913Z,99.90
2023-02-07T03:07:37.681Z,99.90
2023-02-07T03:09:23.604Z,99.90
2023-02-07T03:11:03.361Z,99.90
2023-02-07T03:12:43.163Z,99.90
2023-02-07T03:14:22.926Z,99.90
2023-02-07T03:16:05.594Z,99.90
2023-02-07T03:17:48.892Z,99.90
2023-02-07T03:19:25.153Z,99.90
2023-02-07T03:21:06.947Z,99.90
2023-02-07T03:22:40.925Z,99.90
2023-02-07T03:24:17.506Z,99.90
2023-02-07T03:25:51.815Z,99.90
2023-02-07T03:27:27.356Z,99.90
2023-02-07T03:29:02.124Z,99.90
2023-02-07T03:30:37.108Z,99.90
2023-02-07T03:32:11.057Z,99.90
2023-02-07T03:33:45.348Z,99.90
2023-02-07T03:35:25.518Z,99.90
2023-02-07T03:37:04.639Z,99.90
2023-02-07T03:38:38.760Z,99.90
2023-02-07T03:40:16.714Z,99.90
2023-02-07T03:41:56.487Z,99.90
2023-02-07T03:43:34.696Z,99.90
2023-02-07T03:45:12.477Z,99.90
2023-02-07T03:46:45.540Z,99.90
2023-02-07T03:48:18.778Z,99.90
2023-02-07T03:49:51.862Z,99.90
2023-02-07T03:51:27.956Z,99.90
2023-02-07T03:53:03.383Z,99.90
2023-02-07T03:54:39.089Z,99.90
2023-02-07T03:56:12.124Z,99.90
2023-02-07T03:57:45.119Z,99.90
2023-02-07T03:59:18.038Z,99.90
2023-02-07T04:00:51.032Z,99.90
2023-02-07T04:02:24.332Z,99.90
2023-02-07T04:03:57.549Z,99.90
2023-02-07T04:05:30.781Z,99.90
2023-02-07T04:07:04.167Z,99.90
2023-02-07T04:08:38.376Z,99.90
2023-02-07T04:10:12.753Z,99.90
2023-02-07T04:11:45.880Z,99.90
2023-02-07T04:13:18.931Z,99.90
2023-02-07T04:14:52.171Z,99.90
2023-02-07T04:16:26.133Z,99.90
2023-02-07T04:17:59.680Z,99.90
2023-02-07T04:19:32.578Z,99.90
2023-02-07T04:21:08.478Z,99.90
2023-02-07T04:22:44.622Z,99.90
2023-02-07T04:24:22.591Z,99.90
2023-02-07T04:25:54.688Z,99.90
2023-02-07T04:27:28.225Z,99.90
2023-02-07T04:29:00.473Z,99.90
2023-02-07T04:30:33.536Z,99.90
2023-02-07T04:32:05.770Z,99.90
2023-02-07T04:33:38.819Z,99.90
2023-02-07T04:35:12.108Z,99.90
2023-02-07T04:36:45.154Z,99.90
2023-02-07T04:38:21.110Z,99.90
2023-02-07T04:39:55.496Z,99.90
2023-02-07T04:41:28.901Z,99.90
2023-02-07T04:43:01.822Z,99.90
2023-02-07T04:44:35.207Z,99.90
2023-02-07T04:46:11.784Z,99.90
2023-02-07T04:47:47.747Z,99.90
2023-02-07T04:49:21.169Z,99.90
2023-02-07T04:50:54.072Z,99.90
2023-02-07T04:52:27.159Z,99.90
2023-02-07T04:54:00.190Z,99.90
2023-02-07T04:55:35.951Z,99.90
2023-02-07T04:57:09.070Z,99.90
2023-02-07T04:58:42.114Z,99.90
2023-02-07T05:00:15.955Z,99.90
2023-02-07T05:01:48.939Z,99.90
2023-02-07T05:03:20.902Z,99.90
2023-02-07T05:04:53.923Z,99.90
2023-02-07T05:06:26.916Z,99.90
2023-02-07T05:08:00.039Z,99.90
2023-02-07T05:09:32.999Z,99.90
2023-02-07T05:11:07.750Z,99.90
2023-02-07T05:12:40.845Z,99.90
2023-02-07T05:14:13.805Z,99.90
2023-02-07T05:15:46.835Z,99.90
2023-02-07T05:17:19.797Z,99.90
2023-02-07T05:18:52.727Z,99.90
2023-02-07T05:20:26.409Z,99.90
2023-02-07T05:21:59.453Z,99.90
2023-02-07T05:23:32.426Z,99.90
2023-02-07T05:25:05.957Z,99.90
2023-02-07T05:26:40.552Z,99.90
2023-02-07T05:28:13.558Z,99.90
2023-02-07T05:29:46.630Z,99.90
2023-02-07T05:31:19.695Z,99.90
2023-02-07T05:33:03.641Z,99.90
2023-02-07T05:34:35.492Z,99.90
2023-02-07T05:36:09.487Z,99.90
2023-02-07T05:37:42.467Z,99.90
2023-02-07T05:39:15.444Z,99.90
2023-02-07T05:40:49.713Z,99.90
2023-02-07T05:42:23.291Z,99.90
2023-02-07T05:43:56.448Z,99.90
2023-02-07T05:45:29.827Z,99.90
2023-02-07T05:47:02.595Z,99.90
2023-02-07T05:48:35.800Z,99.90
2023-02-07T05:50:09.503Z,99.90
2023-02-07T05:51:42.494Z,99.90
2023-02-07T05:53:15.678Z,99.90
2023-02-07T05:54:48.644Z,99.90
2023-02-07T05:56:21.713Z,99.90
2023-02-07T05:57:56.015Z,99.90
2023-02-07T05:59:29.018Z,99.90
2023-02-07T06:01:02.192Z,99.90
2023-02-07T06:02:35.199Z,99.90
2023-02-07T06:04:08.184Z,99.90
2023-02-07T06:05:41.536Z,99.90
2023-02-07T06:07:14.295Z,99.90
2023-02-07T06:08:47.265Z,99.90
2023-02-07T06:10:20.473Z,99.90
2023-02-07T06:11:55.381Z,99.90
2023-02-07T06:13:29.658Z,99.90
2023-02-07T06:15:03.233Z,99.90
2023-02-07T06:16:36.196Z,99.90
2023-02-07T06:18:09.129Z,99.90
2023-02-07T06:19:42.080Z,99.90
2023-02-07T06:21:15.176Z,99.90
2023-02-07T06:22:48.108Z,99.90
2023-02-07T06:24:22.283Z,99.90
2023-02-07T06:25:55.541Z,99.90
2023-02-07T06:27:28.592Z,99.90
2023-02-07T06:29:02.974Z,99.90
2023-02-07T06:30:36.016Z,99.90
2023-02-07T06:32:08.986Z,99.90
2023-02-07T06:33:42.163Z,99.90
2023-02-07T06:35:15.333Z,99.90
2023-02-07T06:36:48.519Z,99.90
2023-02-07T06:38:21.564Z,99.90
2023-02-07T06:39:54.630Z,99.90
2023-02-07T06:41:27.612Z,99.90
2023-02-07T06:43:00.795Z,99.90
2023-02-07T06:44:35.104Z,99.90
2023-02-07T06:46:08.417Z,99.90
2023-02-07T06:47:41.357Z,99.90
2023-02-07T06:49:14.474Z,99.90
2023-02-07T06:51:00.844Z,99.90
2023-02-07T06:52:33.878Z,99.90
2023-02-07T06:54:09.984Z,99.90
2023-02-07T06:55:43.076Z,99.90
2023-02-07T06:57:16.196Z,99.90
2023-02-07T06:58:49.277Z,99.90
2023-02-07T07:00:23.733Z,99.90
2023-02-07T07:01:56.743Z,99.90
2023-02-07T07:03:29.726Z,99.90
2023-02-07T07:05:02.716Z,99.90
2023-02-07T07:06:35.806Z,99.90
2023-02-07T07:08:08.907Z,99.90
2023-02-07T07:09:41.812Z,99.90
2023-02-07T07:11:14.776Z,99.90
2023-02-07T07:12:47.917Z,99.90
2023-02-07T07:14:21.079Z,99.90
2023-02-07T07:15:55.420Z,99.90
2023-02-07T07:17:28.571Z,99.90
2023-02-07T07:20:34.828Z,99.90
2023-02-07T07:22:07.787Z,99.90
2023-02-07T07:23:40.739Z,99.90
2023-02-07T07:25:13.861Z,99.90
2023-02-07T07:26:49.734Z,99.90
2023-02-07T07:28:22.965Z,99.90
2023-02-07T07:29:55.895Z,99.90
2023-02-07T07:31:30.316Z,99.90
2023-02-07T07:33:03.363Z,99.90
2023-02-07T07:36:10.174Z,99.90
2023-02-07T07:37:43.105Z,99.90
2023-02-07T07:39:17.084Z,99.90
2023-02-07T07:40:50.023Z,99.90
2023-02-07T07:43:56.206Z,99.90
2023-02-07T07:47:03.683Z,99.90
2023-02-07T07:48:37.167Z,99.90
2023-02-07T07:50:10.689Z,99.90
2023-02-07T07:51:43.644Z,99.90
2023-02-07T07:53:18.293Z,99.90
2023-02-07T07:54:51.226Z,99.90
2023-02-07T07:56:24.162Z,99.90
2023-02-07T07:57:57.130Z,99.90
2023-02-07T07:59:30.191Z,99.90
2023-02-07T08:01:03.133Z,99.90
2023-02-07T08:02:37.451Z,99.90
2023-02-07T08:04:10.533Z,99.90
2023-02-07T08:05:45.118Z,99.90
2023-02-07T08:07:18.308Z,99.90
2023-02-07T08:08:51.406Z,99.90
2023-02-07T08:11:57.523Z,99.90
2023-02-07T08:13:33.090Z,99.90
2023-02-07T08:15:07.841Z,99.90
2023-02-07T08:16:40.831Z,99.90
2023-02-07T08:18:15.295Z,99.90
2023-02-07T08:19:48.443Z,99.90
2023-02-07T08:21:21.482Z,99.90
2023-02-07T08:22:54.437Z,99.90
2023-02-07T08:24:28.330Z,99.90
2023-02-07T08:26:01.894Z,99.90
2023-02-07T08:27:35.178Z,99.90
2023-02-07T08:29:08.192Z,99.90
2023-02-07T08:30:41.707Z,99.90
2023-02-07T08:33:49.544Z,99.90
2023-02-07T08:35:23.122Z,99.90
2023-02-07T08:36:56.236Z,99.90
2023-02-07T08:40:02.456Z,99.90
2023-02-07T08:43:12.362Z,99.90
2023-02-07T08:44:45.739Z,99.90
2023-02-07T08:46:18.961Z,99.90
2023-02-07T08:47:52.410Z,99.90
2023-02-07T08:49:26.620Z,99.90
2023-02-07T08:50:59.565Z,99.90
2023-02-07T08:52:32.657Z,99.90
2023-02-07T08:54:06.029Z,99.90
2023-02-07T08:55:40.977Z,99.90
2023-02-07T08:58:47.198Z,99.90
2023-02-07T09:00:20.444Z,99.90
2023-02-07T09:01:53.450Z,99.90
2023-02-07T09:03:26.791Z,99.90
2023-02-07T09:05:01.095Z,99.90
2023-02-07T09:06:34.032Z,99.90
2023-02-07T09:08:06.964Z,99.90
2023-02-07T09:09:40.311Z,99.90
2023-02-07T09:11:13.341Z,99.90
2023-02-07T09:12:46.337Z,99.90
2023-02-07T09:14:19.628Z,99.90
2023-02-07T09:15:55.918Z,99.90
2023-02-07T09:17:29.054Z,99.90
2023-02-07T09:19:05.076Z,99.90
2023-02-07T09:20:40.345Z,99.90
2023-02-07T09:22:13.428Z,99.90
2023-02-07T09:23:46.411Z,99.90
2023-02-07T09:25:19.360Z,99.90
2023-02-07T09:26:52.313Z,99.90
2023-02-07T09:28:25.394Z,99.90
2023-02-07T09:30:01.373Z,99.90
2023-02-07T09:31:35.629Z,99.90
2023-02-07T09:33:08.793Z,99.90
2023-02-07T09:34:41.729Z,99.90
2023-02-07T09:36:21.007Z,99.90
2023-02-07T09:37:54.282Z,99.90
2023-02-07T09:39:27.770Z,99.90
2023-02-07T09:41:00.574Z,99.90
2023-02-07T09:42:43.288Z,99.90
2023-02-07T09:44:20.532Z,99.90
2023-02-07T09:45:57.414Z,99.90
2023-02-07T09:47:33.304Z,99.90
2023-02-07T09:49:12.075Z,99.90
2023-02-07T09:50:50.251Z,99.90
2023-02-07T09:52:29.187Z,99.90
2023-02-07T09:54:05.184Z,99.90
2023-02-07T09:55:47.159Z,99.90
2023-02-07T09:57:25.409Z,99.90
2023-02-07T09:59:05.085Z,99.90
2023-02-07T10:00:39.002Z,99.90
2023-02-07T10:02:25.961Z,99.90
2023-02-07T10:04:14.459Z,99.90
2023-02-07T10:05:53.349Z,99.90
2023-02-07T10:07:27.828Z,99.90
2023-02-07T10:09:01.893Z,99.90
2023-02-07T10:10:40.394Z,99.90
2023-02-07T10:12:30.640Z,99.90
2023-02-07T10:14:18.487Z,99.90
2023-02-07T10:16:09.213Z,99.90
2023-02-07T10:17:54.748Z,99.90
2023-02-07T10:19:40.074Z,99.90
2023-02-07T10:21:22.201Z,99.90
2023-02-07T10:23:10.603Z,99.90
2023-02-07T10:25:03.613Z,99.90
2023-02-07T10:26:38.752Z,99.90
2023-02-07T10:28:34.159Z,99.90
2023-02-07T10:30:15.343Z,99.90
2023-02-07T10:31:52.162Z,99.90
2023-02-07T10:33:28.946Z,99.90
2023-02-07T10:35:08.849Z,99.90
2023-02-07T10:36:45.683Z,99.90
2023-02-07T10:38:28.361Z,99.90
2023-02-07T10:40:05.342Z,99.90
2023-02-07T10:41:40.495Z,99.90
2023-02-07T10:43:26.130Z,99.90
2023-02-07T10:44:59.118Z,99.90
2023-02-07T10:46:32.601Z,99.90
2023-02-07T10:48:14.266Z,99.90
2023-02-07T10:49:50.769Z,99.90
2023-02-07T10:51:30.467Z,99.90
2023-02-07T10:53:03.401Z,99.90
2023-02-07T10:54:51.822Z,99.90
2023-02-07T10:56:28.512Z,99.90
2023-02-07T10:58:11.391Z,99.90
2023-02-07T10:59:51.792Z,99.90
2023-02-07T11:01:27.530Z,99.90
2023-02-07T11:03:04.216Z,99.90
2023-02-07T11:04:41.247Z,99.90
2023-02-07T11:06:16.020Z,99.90
2023-02-07T11:07:59.003Z,99.90
2023-02-07T11:09:32.202Z,99.90
2023-02-07T11:11:30.156Z,99.90
2023-02-07T11:13:04.765Z,99.50
2023-02-07T11:14:40.095Z,99.60
2023-02-07T11:16:18.643Z,99.30
2023-02-07T11:17:53.803Z,99.40
2023-02-07T11:19:29.544Z,99.30
2023-02-07T11:21:02.552Z,99.30
2023-02-07T11:22:35.909Z,99.10
2023-02-07T11:24:09.577Z,98.90
2023-02-07T11:25:45.135Z,98.50
2023-02-07T11:27:22.552Z,98.40
2023-02-07T11:29:05.394Z,98.60
2023-02-07T11:30:39.265Z,98.30
2023-02-07T11:32:15.882Z,97.90
2023-02-07T11:33:49.230Z,97.50
2023-02-07T11:35:22.296Z,97.20
2023-02-07T11:36:56.037Z,97.30
2023-02-07T11:38:30.762Z,96.90
2023-02-07T11:40:24.764Z,97.40
2023-02-07T11:42:02.796Z,97.40
2023-02-07T11:43:37.280Z,97.30
2023-02-07T11:45:15.514Z,97.50
2023-02-07T11:46:50.876Z,96.90
2023-02-07T11:48:29.617Z,96.70
2023-02-07T11:50:06.270Z,96.70
2023-02-07T11:51:39.290Z,96.50
2023-02-07T11:53:24.536Z,95.90
2023-02-07T11:55:00.093Z,95.40
2023-02-07T11:56:37.961Z,95.50
2023-02-07T11:58:21.474Z,95.50
2023-02-07T12:00:08.167Z,95.80
2023-02-07T12:01:41.922Z,95.50
2023-02-07T12:03:24.216Z,94.90
2023-02-07T12:05:13.175Z,94.80
2023-02-07T12:06:49.710Z,94.90
2023-02-07T12:08:25.582Z,94.90
2023-02-07T12:10:02.096Z,94.60
2023-02-07T12:11:39.515Z,94.60
2023-02-07T12:13:16.315Z,94.80
2023-02-07T12:14:54.707Z,94.60
2023-02-07T12:16:33.326Z,94.60
2023-02-07T12:18:12.261Z,94.80
2023-02-07T12:19:54.463Z,94.60
2023-02-07T12:21:31.965Z,94.30
2023-02-07T12:23:39.138Z,94.30
2023-02-07T12:25:06.698Z,94.30
2023-02-07T12:26:45.398Z,93.90
2023-02-07T12:28:23.731Z,94.00
2023-02-07T12:30:03.437Z,94.10
2023-02-07T12:31:48.074Z,93.70
2023-02-07T12:33:31.313Z,93.60
2023-02-07T12:35:15.163Z,93.60
2023-02-07T12:36:51.184Z,93.70
2023-02-07T12:38:26.792Z,93.30
2023-02-07T12:40:05.748Z,93.60
2023-02-07T12:41:45.561Z,93.10
2023-02-07T12:43:23.892Z,93.10
2023-02-07T12:44:59.630Z,93.00
2023-02-07T12:46:41.121Z,92.70
2023-02-07T12:48:21.300Z,92.80
2023-02-07T12:50:14.159Z,92.50
2023-02-07T12:51:54.417Z,92.00
2023-02-07T12:53:45.916Z,92.10
2023-02-07T12:55:28.065Z,92.20
2023-02-07T12:57:07.059Z,92.20
2023-02-07T12:58:55.029Z,92.20
2023-02-07T13:00:34.390Z,92.30
2023-02-07T13:02:31.440Z,92.00
2023-02-07T13:04:37.829Z,91.60
2023-02-07T13:06:18.274Z,91.60
2023-02-07T13:08:00.223Z,91.60
2023-02-07T13:09:41.790Z,91.50
2023-02-07T13:11:25.515Z,91.40
2023-02-07T13:13:03.412Z,91.70
2023-02-07T13:14:46.039Z,91.70
2023-02-07T13:16:25.579Z,91.80
2023-02-07T13:18:07.857Z,91.60
2023-02-07T13:19:47.760Z,91.60
2023-02-07T13:21:24.572Z,91.70
2023-02-07T13:23:00.668Z,91.60
2023-02-07T13:24:36.627Z,91.60
2023-02-07T13:26:14.720Z,91.60
2023-02-07T13:27:49.371Z,91.50
2023-02-07T13:29:24.732Z,91.70
2023-02-07T13:31:00.005Z,91.80
2023-02-07T13:32:33.029Z,91.80
2023-02-07T13:34:16.807Z,91.50
2023-02-07T13:35:50.618Z,91.40
2023-02-07T13:37:31.620Z,91.00
2023-02-07T13:39:12.920Z,91.10
2023-02-07T13:40:57.230Z,91.30
2023-02-07T13:42:39.211Z,91.30
2023-02-07T13:44:20.415Z,91.40
2023-02-07T13:46:02.579Z,91.30
2023-02-07T13:47:49.738Z,90.90
2023-02-07T13:49:38.031Z,91.10
2023-02-07T13:51:19.682Z,90.80
2023-02-07T13:53:01.681Z,91.30
2023-02-07T13:54:43.192Z,91.20
2023-02-07T13:56:36.697Z,91.20
2023-02-07T13:59:00.728Z,91.10
2023-02-07T14:00:38.408Z,90.90
2023-02-07T14:02:20.458Z,90.90
2023-02-07T14:04:03.708Z,90.80
2023-02-07T14:05:43.350Z,90.90
2023-02-07T14:07:23.814Z,91.00
2023-02-07T14:09:03.484Z,92.10
2023-02-07T14:10:45.586Z,91.10
2023-02-07T14:12:24.450Z,91.00
2023-02-07T14:14:07.155Z,91.20
2023-02-07T14:16:02.627Z,91.10
2023-02-07T14:17:58.714Z,90.80
2023-02-07T14:19:53.172Z,90.70
2023-02-07T14:21:39.746Z,90.70
2023-02-07T14:23:16.348Z,90.80
2023-02-07T14:24:52.370Z,91.00
2023-02-07T14:27:06.151Z,91.00
2023-02-07T14:28:39.511Z,91.60
2023-02-07T14:30:16.688Z,91.10
2023-02-07T14:31:50.721Z,91.30
2023-02-07T14:33:29.761Z,91.10
2023-02-07T14:35:06.630Z,91.10
2023-02-07T14:36:41.389Z,91.10
2023-02-07T14:38:30.280Z,91.30
2023-02-07T14:40:09.717Z,91.00
2023-02-07T14:41:44.963Z,90.90
2023-02-07T14:43:23.549Z,91.00
2023-02-07T14:44:58.954Z,90.90
2023-02-07T14:46:37.809Z,91.00
2023-02-07T14:48:33.145Z,91.10
2023-02-07T14:50:08.213Z,90.90
2023-02-07T14:51:45.688Z,90.90
2023-02-07T14:53:18.785Z,90.70
2023-02-07T14:55:03.212Z,90.80
2023-02-07T14:56:46.070Z,90.90
2023-02-07T14:58:27.636Z,91.10
2023-02-07T15:00:05.001Z,90.90
2023-02-07T15:01:38.063Z,91.00
2023-02-07T15:03:14.848Z,91.10
2023-02-07T15:04:47.913Z,91.00
2023-02-07T15:06:32.301Z,91.20
2023-02-07T15:08:17.741Z,91.20
2023-02-07T15:09:50.753Z,91.10
2023-02-07T15:11:25.427Z,90.80
2023-02-07T15:12:58.495Z,90.80
2023-02-07T15:14:34.327Z,90.70
2023-02-07T15:16:09.433Z,91.00
2023-02-07T15:17:44.521Z,90.80
2023-02-07T15:19:25.087Z,90.60
2023-02-07T15:20:59.594Z,90.70
2023-02-07T15:22:33.482Z,90.50
2023-02-07T15:24:20.933Z,90.70
2023-02-07T15:25:55.768Z,90.30
2023-02-07T15:27:31.147Z,90.60
2023-02-07T15:29:07.313Z,90.60
2023-02-07T15:30:40.901Z,90.50
2023-02-07T15:32:22.843Z,90.50
2023-02-07T15:33:57.579Z,90.40
2023-02-07T15:35:39.407Z,90.60
2023-02-07T15:37:16.373Z,91.20
2023-02-07T15:38:49.641Z,91.60
2023-02-07T15:40:26.724Z,91.60
2023-02-07T15:42:00.187Z,91.70
2023-02-07T15:43:35.534Z,91.80
2023-02-07T15:45:24.472Z,91.60
2023-02-07T15:46:59.341Z,91.70
2023-02-07T15:48:32.666Z,91.80
2023-02-07T15:50:07.526Z,91.90
2023-02-07T15:51:43.398Z,91.80
2023-02-07T15:53:22.988Z,91.60
2023-02-07T15:54:57.683Z,91.70
2023-02-07T15:56:32.613Z,92.10
2023-02-07T15:58:08.139Z,91.90
2023-02-07T15:59:43.028Z,92.10
2023-02-07T16:01:18.479Z,92.10
2023-02-07T16:02:59.099Z,91.80
2023-02-07T16:04:33.751Z,91.90
2023-02-07T16:06:14.980Z,91.60
2023-02-07T16:07:48.667Z,91.20
2023-02-07T16:09:39.415Z,91.40
2023-02-07T16:11:14.931Z,91.50
2023-02-07T16:12:53.130Z,91.20
2023-02-07T16:14:31.683Z,91.30
2023-02-07T16:16:14.144Z,91.30
2023-02-07T16:20:35.176Z,91.40
2023-02-07T16:22:40.445Z,91.90
2023-02-07T16:24:48.768Z,91.90
2023-02-07T16:26:56.581Z,92.00
2023-02-07T16:28:42.227Z,91.90
2023-02-07T16:30:31.349Z,92.10
2023-02-07T16:32:12.922Z,92.20
2023-02-07T16:33:59.655Z,92.30
2023-02-07T16:37:59.164Z,92.70
2023-02-07T16:42:05.419Z,92.90
2023-02-07T16:44:01.494Z,93.10
2023-02-07T16:46:29.551Z,93.20
2023-02-07T16:48:18.869Z,93.20
2023-02-07T16:50:27.468Z,93.50
2023-02-07T16:52:36.618Z,93.70
2023-02-07T16:54:23.091Z,93.80
2023-02-07T16:55:57.802Z,94.10
2023-02-07T16:57:30.677Z,94.00
2023-02-07T16:59:05.161Z,94.10
2023-02-07T17:00:38.281Z,94.30
2023-02-07T17:02:15.861Z,94.40
2023-02-07T17:03:48.902Z,94.40
2023-02-07T17:05:23.537Z,94.40
2023-02-07T17:06:56.553Z,94.40
2023-02-07T17:08:30.273Z,94.60
2023-02-07T17:10:03.271Z,94.60
2023-02-07T17:11:36.316Z,94.60
2023-02-07T17:13:21.020Z,94.70
2023-02-07T17:14:58.055Z,95.00
2023-02-07T17:16:31.089Z,95.10
2023-02-07T17:18:04.184Z,95.20
2023-02-07T17:19:37.081Z,95.20
2023-02-07T17:21:11.612Z,95.30
2023-02-07T17:22:44.563Z,95.10
2023-02-07T17:24:17.997Z,95.30
2023-02-07T17:25:50.903Z,95.40
2023-02-07T17:27:26.601Z,95.50
2023-02-07T17:28:59.993Z,95.60
2023-02-07T17:30:39.273Z,95.70
2023-02-07T17:32:12.470Z,95.90
2023-02-07T17:33:45.530Z,96.10
2023-02-07T17:35:19.287Z,96.20
2023-02-07T17:36:52.400Z,96.30
2023-02-07T17:38:25.503Z,96.20
2023-02-07T17:39:58.460Z,96.40
2023-02-07T17:41:33.867Z,96.80
2023-02-07T17:43:07.659Z,96.70
2023-02-07T17:44:41.206Z,96.50
2023-02-07T17:46:18.761Z,96.50
2023-02-07T17:47:51.895Z,96.60
2023-02-07T17:49:24.883Z,96.70
2023-02-07T17:50:58.080Z,96.70
2023-02-07T17:52:31.312Z,97.20
2023-02-07T17:54:04.256Z,96.70
2023-02-07T17:55:38.863Z,96.50
2023-02-07T17:57:13.756Z,96.60
2023-02-07T17:58:46.807Z,96.70
2023-02-07T18:00:22.353Z,96.90
2023-02-07T18:01:56.964Z,97.00
2023-02-07T18:03:29.882Z,97.10
2023-02-07T18:05:02.870Z,97.20
2023-02-07T18:06:35.926Z,97.40
2023-02-07T18:08:10.103Z,97.40
2023-02-07T18:09:43.046Z,97.40
2023-02-07T18:11:16.685Z,97.60
2023-02-07T18:12:49.891Z,97.60
2023-02-07T18:14:23.684Z,97.80
2023-02-07T18:15:57.689Z,97.80
2023-02-07T18:17:32.304Z,97.90
2023-02-07T18:19:05.307Z,98.10
2023-02-07T18:20:38.733Z,98.30
2023-02-07T18:22:11.902Z,98.30
2023-02-07T18:23:45.435Z,98.50
2023-02-07T18:25:19.061Z,98.50
2023-02-07T18:26:52.795Z,98.60
2023-02-07T18:28:26.859Z,99.70
2023-02-07T18:29:59.729Z,99.10
2023-02-07T18:31:33.231Z,99.20
2023-02-07T18:33:08.031Z,99.30
2023-02-07T18:34:42.931Z,99.30
2023-02-07T18:36:16.980Z,99.40
2023-02-07T18:37:50.189Z,99.90
2023-02-07T18:39:23.231Z,99.90
2023-02-07T18:40:56.224Z,99.80
2023-02-07T18:42:30.780Z,99.80
2023-02-07T18:44:03.861Z,99.90
2023-02-07T18:45:37.080Z,99.90
2023-02-07T18:47:10.438Z,99.90
2023-02-07T18:48:45.932Z,99.90
2023-02-07T18:50:19.745Z,99.90
2023-02-07T18:51:52.759Z,99.90
2023-02-07T18:53:25.717Z,99.90
2023-02-07T18:54:58.664Z,99.90
2023-02-07T18:56:31.784Z,99.90
2023-02-07T18:58:04.918Z,99.90
2023-02-07T18:59:38.990Z,99.90
2023-02-07T19:01:15.197Z,99.90
2023-02-07T19:02:48.349Z,99.90
2023-02-07T19:04:23.092Z,99.90
2023-02-07T19:05:58.497Z,99.90
2023-02-07T19:07:31.443Z,99.90
2023-02-07T19:09:04.599Z,99.90
2023-02-07T19:10:38.058Z,99.90
2023-02-07T19:12:11.196Z,99.90
2023-02-07T19:13:44.386Z,99.90
2023-02-07T19:15:17.497Z,99.90
2023-02-07T19:16:52.814Z,99.90
2023-02-07T19:18:25.722Z,99.90
2023-02-07T19:20:00.064Z,99.90
2023-02-07T19:21:33.240Z,99.90
2023-02-07T19:23:06.201Z,99.90
2023-02-07T19:24:39.216Z,99.90
2023-02-07T19:26:12.165Z,99.90
2023-02-07T19:27:45.078Z,99.90
2023-02-07T19:29:19.071Z,99.90
2023-02-07T19:30:52.170Z,99.90
2023-02-07T19:32:25.196Z,99.90
2023-02-07T19:33:58.832Z,99.90
2023-02-07T19:35:35.513Z,99.90
2023-02-07T19:37:08.434Z,99.90
2023-02-07T19:38:41.591Z,99.90
2023-02-07T19:40:14.530Z,99.90
2023-02-07T19:41:47.388Z,99.90
2023-02-07T19:43:20.344Z,99.90
2023-02-07T19:44:53.424Z,99.90
2023-02-07T19:46:26.730Z,99.90
2023-02-07T19:47:59.798Z,99.90
2023-02-07T19:49:32.780Z,99.90
2023-02-07T19:51:09.773Z,99.90
2023-02-07T19:52:42.866Z,99.90
2023-02-07T19:54:15.764Z,99.90
2023-02-07T19:55:48.726Z,99.90
2023-02-07T19:57:21.667Z,99.90
2023-02-07T19:58:56.145Z,99.90
2023-02-07T20:00:29.696Z,99.90
2023-02-07T20:02:02.736Z,99.90
2023-02-07T20:03:35.784Z,99.90
2023-02-07T20:05:08.799Z,99.90
2023-02-07T20:06:43.153Z,99.90
2023-02-07T20:08:16.237Z,99.90
2023-02-07T20:09:49.356Z,99.90
2023-02-07T20:11:22.708Z,99.90
2023-02-07T20:12:55.614Z,99.90
2023-02-07T20:14:29.290Z,99.90
2023-02-07T20:16:05.244Z,99.90
2023-02-07T20:17:38.800Z,99.90
2023-02-07T20:19:12.086Z,99.90
2023-02-07T20:20:48.203Z,99.90
2023-02-07T20:22:22.670Z,99.90
2023-02-07T20:23:57.231Z,99.90
2023-02-07T20:27:06.544Z,99.90
2023-02-07T20:28:39.708Z,99.90
2023-02-07T20:30:13.677Z,99.90
2023-02-07T20:31:48.487Z,99.90
2023-02-07T20:33:21.922Z,99.90
2023-02-07T20:34:54.836Z,99.90
2023-02-07T20:36:28.004Z,99.90
2023-02-07T20:38:02.595Z,99.90
2023-02-07T20:39:35.617Z,99.90
2023-02-07T20:41:10.640Z,99.90
2023-02-07T20:42:43.605Z,99.90
2023-02-07T20:44:19.679Z,99.90
2023-02-07T20:45:52.531Z,99.90
2023-02-07T20:47:25.602Z,99.90
2023-02-07T20:49:00.249Z,99.90
2023-02-07T20:50:34.792Z,99.90
2023-02-07T20:52:07.701Z,99.90
2023-02-07T20:53:43.414Z,99.90
2023-02-07T20:55:16.466Z,99.90
2023-02-07T20:58:22.751Z,99.90
2023-02-07T20:59:55.618Z,99.90
2023-02-07T21:01:31.556Z,99.90
2023-02-07T21:03:04.617Z,99.90
2023-02-07T21:04:37.806Z,99.90
2023-02-07T21:06:11.114Z,99.90
2023-02-07T21:07:44.537Z,99.90
2023-02-07T21:09:18.823Z,99.90
2023-02-07T21:10:51.768Z,99.90
2023-02-07T21:12:24.764Z,99.90
2023-02-07T21:13:57.691Z,99.90
2023-02-07T21:15:30.613Z,99.90
2023-02-07T21:17:06.701Z,99.90
2023-02-07T21:18:39.853Z,99.90
2023-02-07T21:20:12.863Z,99.90
2023-02-07T21:21:47.206Z,99.90
2023-02-07T21:23:20.286Z,99.90